sensor_id;sensor_type;location;lat;lon;timestamp;pressure;altitude;pressure_sealevel;temperature;humidity
57290;BME280;43523;53.022;-1.178;2023-04-07T00:00:25;101134.95;;;2.10;100.00
57290;BME280;43523;53.022;-1.178;2023-04-07T00:01:27;101134.03;;;2.50;99.56
57290;BME280;43523;53.022;-1.178;2023-04-07T00:02:29;101139.58;;;2.79;98.57
57290;BME280;43523;53.022;-1.178;2023-04-07T00:03:32;101136.83;;;1.90;100.00
57290;BME280;43523;53.022;-1.178;2023-04-07T00:04:34;101133.90;;;2.88;97.40
57290;BME280;43523;53.022;-1.178;2023-04-07T00:05:36;101135.30;;;2.62;95.63
57290;BME280;43523;53.022;-1.178;2023-04-07T00:06:39;101135.03;;;2.76;96.65
57290;BME280;43523;53.022;-1.178;2023-04-07T00:07:41;101134.07;;;3.11;94.93
57290;BME280;43523;53.022;-1.178;2023-04-07T00:08:44;101135.26;;;2.96;93.77
57290;BME280;43523;53.022;-1.178;2023-04-07T00:09:46;101133.71;;;3.16;92.74
57290;BME280;43523;53.022;-1.178;2023-04-07T00:10:49;101132.34;;;2.89;94.27
57290;BME280;43523;53.022;-1.178;2023-04-07T00:11:51;101135.71;;;2.30;96.09
57290;BME280;43523;53.022;-1.178;2023-04-07T00:12:54;101136.16;;;2.45;100.00
57290;BME280;43523;53.022;-1.178;2023-04-07T00:13:56;101135.94;;;2.83;97.30
57290;BME280;43523;53.022;-1.178;2023-04-07T00:14:59;101137.39;;;2.66;96.50
57290;BME280;43523;53.022;-1.178;2023-04-07T00:16:01;101137.97;;;2.39;100.00
57290;BME280;43523;53.022;-1.178;2023-04-07T00:17:04;101136.45;;;2.38;99.64
57290;BME280;43523;53.022;-1.178;2023-04-07T00:18:08;101135.72;;;2.45;96.43
57290;BME280;43523;53.022;-1.178;2023-04-07T00:19:10;101138.99;;;1.94;100.00
57290;BME280;43523;53.022;-1.178;2023-04-07T00:20:12;101136.91;;;3.03;96.49
57290;BME280;43523;53.022;-1.178;2023-04-07T00:21:15;101136.26;;;2.86;95.88
57290;BME280;43523;53.022;-1.178;2023-04-07T00:22:17;101137.45;;;2.42;96.56
57290;BME280;43523;53.022;-1.178;2023-04-07T00:23:20;101138.77;;;3.16;96.45
57290;BME280;43523;53.022;-1.178;2023-04-07T00:24:22;101136.70;;;3.14;93.86
57290;BME280;43523;53.022;-1.178;2023-04-07T00:25:25;101135.89;;;2.85;95.27
57290;BME280;43523;53.022;-1.178;2023-04-07T00:26:27;101134.41;;;3.17;93.80
57290;BME280;43523;53.022;-1.178;2023-04-07T00:27:29;101134.14;;;3.29;93.05
57290;BME280;43523;53.022;-1.178;2023-04-07T00:28:32;101136.33;;;3.00;93.31
57290;BME280;43523;53.022;-1.178;2023-04-07T00:29:35;101132.77;;;3.08;93.88
57290;BME280;43523;53.022;-1.178;2023-04-07T00:30:37;101135.06;;;2.61;96.05
57290;BME280;43523;53.022;-1.178;2023-04-07T00:31:39;101132.42;;;2.70;94.61
57290;BME280;43523;53.022;-1.178;2023-04-07T00:32:43;101133.76;;;3.10;94.59
57290;BME280;43523;53.022;-1.178;2023-04-07T00:33:45;101136.98;;;3.11;92.59
57290;BME280;43523;53.022;-1.178;2023-04-07T00:34:48;101135.17;;;2.92;93.08
57290;BME280;43523;53.022;-1.178;2023-04-07T00:35:50;101135.41;;;2.97;95.28
57290;BME280;43523;53.022;-1.178;2023-04-07T00:36:53;101136.52;;;2.85;94.10
57290;BME280;43523;53.022;-1.178;2023-04-07T00:37:55;101136.31;;;3.47;91.21
57290;BME280;43523;53.022;-1.178;2023-04-07T00:38:58;101137.53;;;3.22;90.54
57290;BME280;43523;53.022;-1.178;2023-04-07T00:40:00;101140.30;;;2.81;92.14
57290;BME280;43523;53.022;-1.178;2023-04-07T00:41:03;101140.23;;;2.98;92.35
57290;BME280;43523;53.022;-1.178;2023-04-07T00:42:05;101142.26;;;2.90;91.19
57290;BME280;43523;53.022;-1.178;2023-04-07T00:43:08;101143.85;;;3.01;91.49
57290;BME280;43523;53.022;-1.178;2023-04-07T00:44:10;101146.53;;;3.24;90.66
57290;BME280;43523;53.022;-1.178;2023-04-07T00:45:13;101146.28;;;3.21;89.07
57290;BME280;43523;53.022;-1.178;2023-04-07T00:46:15;101146.46;;;3.28;87.77
57290;BME280;43523;53.022;-1.178;2023-04-07T00:47:18;101146.77;;;2.77;89.17
57290;BME280;43523;53.022;-1.178;2023-04-07T00:48:20;101146.24;;;3.27;88.79
57290;BME280;43523;53.022;-1.178;2023-04-07T00:49:23;101150.56;;;3.17;88.69
57290;BME280;43523;53.022;-1.178;2023-04-07T00:50:25;101151.89;;;3.32;88.21
57290;BME280;43523;53.022;-1.178;2023-04-07T00:51:28;101149.84;;;3.40;88.09
57290;BME280;43523;53.022;-1.178;2023-04-07T00:52:31;101152.70;;;2.84;90.90
57290;BME280;43523;53.022;-1.178;2023-04-07T00:53:34;101152.19;;;3.14;89.87
57290;BME280;43523;53.022;-1.178;2023-04-07T00:54:36;101150.79;;;3.29;89.36
57290;BME280;43523;53.022;-1.178;2023-04-07T00:55:38;101151.94;;;2.91;90.08
57290;BME280;43523;53.022;-1.178;2023-04-07T00:56:41;101153.00;;;3.33;89.56
57290;BME280;43523;53.022;-1.178;2023-04-07T00:57:44;101151.18;;;3.41;89.05
57290;BME280;43523;53.022;-1.178;2023-04-07T00:58:46;101150.33;;;2.77;90.58
57290;BME280;43523;53.022;-1.178;2023-04-07T00:59:49;101151.07;;;2.80;90.67
57290;BME280;43523;53.022;-1.178;2023-04-07T01:00:57;101151.84;;;2.68;90.49
57290;BME280;43523;53.022;-1.178;2023-04-07T01:02:07;101150.66;;;3.23;89.23
57290;BME280;43523;53.022;-1.178;2023-04-07T01:03:17;101150.34;;;2.47;91.53
57290;BME280;43523;53.022;-1.178;2023-04-07T01:04:26;101154.93;;;2.35;90.99
57290;BME280;43523;53.022;-1.178;2023-04-07T01:05:37;101152.89;;;2.69;90.39
57290;BME280;43523;53.022;-1.178;2023-04-07T01:06:49;101156.24;;;3.09;89.92
57290;BME280;43523;53.022;-1.178;2023-04-07T01:08:00;101157.36;;;2.82;89.81
57290;BME280;43523;53.022;-1.178;2023-04-07T01:09:09;101155.61;;;2.99;88.14
57290;BME280;43523;53.022;-1.178;2023-04-07T01:10:18;101160.40;;;2.62;89.33
57290;BME280;43523;53.022;-1.178;2023-04-07T01:11:24;101157.63;;;2.88;88.10
57290;BME280;43523;53.022;-1.178;2023-04-07T01:12:35;101160.92;;;2.55;87.44
57290;BME280;43523;53.022;-1.178;2023-04-07T01:13:45;101160.27;;;2.79;89.18
57290;BME280;43523;53.022;-1.178;2023-04-07T01:14:53;101161.65;;;2.59;88.26
57290;BME280;43523;53.022;-1.178;2023-04-07T01:15:59;101160.38;;;2.71;87.21
57290;BME280;43523;53.022;-1.178;2023-04-07T01:17:06;101159.15;;;2.21;87.87
57290;BME280;43523;53.022;-1.178;2023-04-07T01:18:16;101162.81;;;2.21;89.17
57290;BME280;43523;53.022;-1.178;2023-04-07T01:19:32;101163.85;;;1.85;91.31
57290;BME280;43523;53.022;-1.178;2023-04-07T01:20:36;101160.40;;;2.42;89.33
57290;BME280;43523;53.022;-1.178;2023-04-07T01:21:42;101164.60;;;0.72;96.68
57290;BME280;43523;53.022;-1.178;2023-04-07T01:22:49;101166.23;;;0.59;100.00
57290;BME280;43523;53.022;-1.178;2023-04-07T01:24:07;101163.04;;;1.08;97.82
57290;BME280;43523;53.022;-1.178;2023-04-07T01:26:22;101163.88;;;1.14;98.18
57290;BME280;43523;53.022;-1.178;2023-04-07T01:27:35;101167.87;;;0.86;100.00
57290;BME280;43523;53.022;-1.178;2023-04-07T01:28:54;101166.38;;;1.46;97.99
57290;BME280;43523;53.022;-1.178;2023-04-07T01:30:00;101165.44;;;1.56;96.90
57290;BME280;43523;53.022;-1.178;2023-04-07T01:31:04;101172.59;;;1.26;98.73
57290;BME280;43523;53.022;-1.178;2023-04-07T01:32:07;101174.72;;;1.12;99.48
57290;BME280;43523;53.022;-1.178;2023-04-07T01:33:12;101171.10;;;1.40;97.81
57290;BME280;43523;53.022;-1.178;2023-04-07T01:34:17;101173.65;;;1.21;98.81
57290;BME280;43523;53.022;-1.178;2023-04-07T01:35:20;101169.86;;;1.52;97.44
57290;BME280;43523;53.022;-1.178;2023-04-07T01:36:23;101175.96;;;1.13;99.06
57290;BME280;43523;53.022;-1.178;2023-04-07T01:37:28;101175.71;;;1.23;100.00
57290;BME280;43523;53.022;-1.178;2023-04-07T01:38:31;101174.81;;;1.74;97.27
57290;BME280;43523;53.022;-1.178;2023-04-07T01:39:35;101173.01;;;2.18;96.12
57290;BME280;43523;53.022;-1.178;2023-04-07T01:40:38;101172.86;;;1.94;97.27
57290;BME280;43523;53.022;-1.178;2023-04-07T01:41:41;101173.68;;;1.78;96.96
57290;BME280;43523;53.022;-1.178;2023-04-07T01:42:46;101175.90;;;1.75;96.64
57290;BME280;43523;53.022;-1.178;2023-04-07T01:43:50;101175.12;;;2.36;93.95
57290;BME280;43523;53.022;-1.178;2023-04-07T01:44:54;101178.08;;;2.48;94.37
57290;BME280;43523;53.022;-1.178;2023-04-07T01:45:57;101177.45;;;1.86;95.95
57290;BME280;43523;53.022;-1.178;2023-04-07T01:47:01;101179.30;;;2.12;95.00
57290;BME280;43523;53.022;-1.178;2023-04-07T01:48:05;101176.70;;;2.54;92.90
57290;BME280;43523;53.022;-1.178;2023-04-07T01:49:10;101176.41;;;2.95;91.73
57290;BME280;43523;53.022;-1.178;2023-04-07T01:50:12;101178.66;;;2.68;91.95
57290;BME280;43523;53.022;-1.178;2023-04-07T01:51:16;101179.37;;;2.62;91.39
57290;BME280;43523;53.022;-1.178;2023-04-07T01:52:18;101178.09;;;2.61;91.03
57290;BME280;43523;53.022;-1.178;2023-04-07T01:53:22;101178.55;;;2.46;90.98
57290;BME280;43523;53.022;-1.178;2023-04-07T01:54:25;101178.57;;;2.79;91.50
57290;BME280;43523;53.022;-1.178;2023-04-07T01:55:27;101176.92;;;2.60;90.53
57290;BME280;43523;53.022;-1.178;2023-04-07T01:56:29;101179.37;;;2.44;90.62
57290;BME280;43523;53.022;-1.178;2023-04-07T01:57:32;101179.14;;;2.74;91.46
57290;BME280;43523;53.022;-1.178;2023-04-07T01:58:35;101177.70;;;2.55;90.33
57290;BME280;43523;53.022;-1.178;2023-04-07T01:59:37;101176.51;;;2.60;89.70
57290;BME280;43523;53.022;-1.178;2023-04-07T02:00:40;101179.20;;;2.52;88.03
57290;BME280;43523;53.022;-1.178;2023-04-07T02:01:43;101180.43;;;1.89;90.84
57290;BME280;43523;53.022;-1.178;2023-04-07T02:02:48;101179.64;;;2.09;90.12
57290;BME280;43523;53.022;-1.178;2023-04-07T02:03:55;101184.16;;;1.54;93.12
57290;BME280;43523;53.022;-1.178;2023-04-07T02:05:05;101183.90;;;1.46;93.43
57290;BME280;43523;53.022;-1.178;2023-04-07T02:06:12;101183.75;;;1.36;93.86
57290;BME280;43523;53.022;-1.178;2023-04-07T02:07:19;101187.51;;;1.48;93.10
57290;BME280;43523;53.022;-1.178;2023-04-07T02:08:23;101191.36;;;1.31;95.05
57290;BME280;43523;53.022;-1.178;2023-04-07T02:09:30;101184.20;;;1.64;91.22
57290;BME280;43523;53.022;-1.178;2023-04-07T02:10:36;101183.40;;;1.85;91.56
57290;BME280;43523;53.022;-1.178;2023-04-07T02:11:40;101184.20;;;1.89;91.90
57290;BME280;43523;53.022;-1.178;2023-04-07T02:12:45;101184.57;;;2.19;92.32
57290;BME280;43523;53.022;-1.178;2023-04-07T02:13:48;101185.67;;;1.27;94.52
57290;BME280;43523;53.022;-1.178;2023-04-07T02:14:51;101186.77;;;1.68;93.59
57290;BME280;43523;53.022;-1.178;2023-04-07T02:15:55;101184.51;;;1.87;93.37
57290;BME280;43523;53.022;-1.178;2023-04-07T02:16:58;101187.14;;;1.84;92.42
57290;BME280;43523;53.022;-1.178;2023-04-07T02:18:03;101185.27;;;1.96;91.85
57290;BME280;43523;53.022;-1.178;2023-04-07T02:19:06;101191.76;;;1.05;93.48
57290;BME280;43523;53.022;-1.178;2023-04-07T02:20:09;101189.12;;;1.70;92.11
57290;BME280;43523;53.022;-1.178;2023-04-07T02:21:14;101193.71;;;1.33;93.58
57290;BME280;43523;53.022;-1.178;2023-04-07T02:22:17;101196.69;;;0.95;97.19
57290;BME280;43523;53.022;-1.178;2023-04-07T02:23:19;101192.32;;;1.06;96.50
57290;BME280;43523;53.022;-1.178;2023-04-07T02:24:22;101189.92;;;1.17;96.54
57290;BME280;43523;53.022;-1.178;2023-04-07T02:25:25;101190.44;;;1.06;97.55
57290;BME280;43523;53.022;-1.178;2023-04-07T02:26:33;101193.35;;;1.39;97.12
57290;BME280;43523;53.022;-1.178;2023-04-07T02:27:35;101191.69;;;1.43;96.73
57290;BME280;43523;53.022;-1.178;2023-04-07T02:28:38;101187.74;;;1.83;95.00
57290;BME280;43523;53.022;-1.178;2023-04-07T02:29:40;101186.85;;;1.64;94.57
57290;BME280;43523;53.022;-1.178;2023-04-07T02:30:44;101191.95;;;1.79;93.95
57290;BME280;43523;53.022;-1.178;2023-04-07T02:31:46;101194.24;;;1.77;94.84
57290;BME280;43523;53.022;-1.178;2023-04-07T02:32:49;101192.70;;;1.65;93.57
57290;BME280;43523;53.022;-1.178;2023-04-07T02:33:51;101193.42;;;1.20;95.49
57290;BME280;43523;53.022;-1.178;2023-04-07T02:34:54;101194.01;;;1.47;95.08
57290;BME280;43523;53.022;-1.178;2023-04-07T02:35:56;101194.12;;;1.62;94.26
57290;BME280;43523;53.022;-1.178;2023-04-07T02:36:59;101189.28;;;1.95;91.60
57290;BME280;43523;53.022;-1.178;2023-04-07T02:38:01;101197.57;;;1.47;92.97
57290;BME280;43523;53.022;-1.178;2023-04-07T02:39:04;101199.43;;;1.76;92.60
57290;BME280;43523;53.022;-1.178;2023-04-07T02:40:07;101195.88;;;1.85;91.80
57290;BME280;43523;53.022;-1.178;2023-04-07T02:41:10;101198.79;;;1.58;90.66
57290;BME280;43523;53.022;-1.178;2023-04-07T02:42:12;101202.41;;;1.45;92.20
57290;BME280;43523;53.022;-1.178;2023-04-07T02:43:15;101199.05;;;1.16;93.07
57290;BME280;43523;53.022;-1.178;2023-04-07T02:44:17;101203.28;;;0.51;97.20
57290;BME280;43523;53.022;-1.178;2023-04-07T02:45:20;101202.52;;;0.92;96.71
57290;BME280;43523;53.022;-1.178;2023-04-07T02:46:23;101203.59;;;1.15;97.85
57290;BME280;43523;53.022;-1.178;2023-04-07T02:47:25;101203.78;;;1.35;100.00
57290;BME280;43523;53.022;-1.178;2023-04-07T02:48:27;101202.41;;;1.35;100.00
57290;BME280;43523;53.022;-1.178;2023-04-07T02:49:30;101207.03;;;0.32;98.88
57290;BME280;43523;53.022;-1.178;2023-04-07T02:50:32;101205.94;;;0.67;99.27
57290;BME280;43523;53.022;-1.178;2023-04-07T02:51:35;101205.84;;;0.76;100.00
57290;BME280;43523;53.022;-1.178;2023-04-07T02:52:37;101204.64;;;1.34;100.00
57290;BME280;43523;53.022;-1.178;2023-04-07T02:53:40;101207.46;;;0.66;100.00
57290;BME280;43523;53.022;-1.178;2023-04-07T02:54:44;101209.32;;;0.85;100.00
57290;BME280;43523;53.022;-1.178;2023-04-07T02:55:46;101208.93;;;0.61;100.00
57290;BME280;43523;53.022;-1.178;2023-04-07T02:56:48;101212.65;;;0.50;100.00
57290;BME280;43523;53.022;-1.178;2023-04-07T02:57:51;101211.25;;;0.35;99.60
57290;BME280;43523;53.022;-1.178;2023-04-07T02:58:53;101213.94;;;0.26;99.84
57290;BME280;43523;53.022;-1.178;2023-04-07T02:59:56;101213.87;;;0.95;98.65
57290;BME280;43523;53.022;-1.178;2023-04-07T03:00:58;101213.34;;;0.60;97.20
57290;BME280;43523;53.022;-1.178;2023-04-07T03:02:01;101211.83;;;-0.18;100.00
57290;BME280;43523;53.022;-1.178;2023-04-07T03:03:03;101214.24;;;0.35;100.00
57290;BME280;43523;53.022;-1.178;2023-04-07T03:04:07;101213.32;;;0.86;97.96
57290;BME280;43523;53.022;-1.178;2023-04-07T03:05:09;101210.96;;;-0.27;100.00
57290;BME280;43523;53.022;-1.178;2023-04-07T03:06:12;101212.73;;;-0.04;100.00
57290;BME280;43523;53.022;-1.178;2023-04-07T03:07:14;101210.73;;;0.34;99.74
57290;BME280;43523;53.022;-1.178;2023-04-07T03:08:17;101208.80;;;-0.16;100.00
57290;BME280;43523;53.022;-1.178;2023-04-07T03:09:19;101208.71;;;-0.56;100.00
57290;BME280;43523;53.022;-1.178;2023-04-07T03:10:22;101202.99;;;-0.81;100.00
57290;BME280;43523;53.022;-1.178;2023-04-07T03:11:25;101199.26;;;-0.94;100.00
57290;BME280;43523;53.022;-1.178;2023-04-07T03:12:27;101193.13;;;-0.16;100.00
57290;BME280;43523;53.022;-1.178;2023-04-07T03:13:30;101191.87;;;-0.14;100.00
57290;BME280;43523;53.022;-1.178;2023-04-07T03:14:32;101196.17;;;-0.64;100.00
57290;BME280;43523;53.022;-1.178;2023-04-07T03:15:35;101194.09;;;-0.60;100.00
57290;BME280;43523;53.022;-1.178;2023-04-07T03:16:37;101198.00;;;-0.65;100.00
57290;BME280;43523;53.022;-1.178;2023-04-07T03:17:40;101204.25;;;-1.03;100.00
57290;BME280;43523;53.022;-1.178;2023-04-07T03:18:43;101202.82;;;-0.60;100.00
57290;BME280;43523;53.022;-1.178;2023-04-07T03:19:46;101202.48;;;-0.45;100.00
57290;BME280;43523;53.022;-1.178;2023-04-07T03:20:48;101205.21;;;-0.69;100.00
57290;BME280;43523;53.022;-1.178;2023-04-07T03:21:51;101206.03;;;-0.50;100.00
57290;BME280;43523;53.022;-1.178;2023-04-07T03:22:53;101204.28;;;0.16;100.00
57290;BME280;43523;53.022;-1.178;2023-04-07T03:23:56;101202.24;;;0.62;100.00
57290;BME280;43523;53.022;-1.178;2023-04-07T03:24:59;101199.02;;;0.12;99.13
57290;BME280;43523;53.022;-1.178;2023-04-07T03:26:01;101199.56;;;0.27;99.63
57290;BME280;43523;53.022;-1.178;2023-04-07T03:27:03;101197.88;;;0.08;100.00
57290;BME280;43523;53.022;-1.178;2023-04-07T03:28:06;101198.49;;;-0.53;100.00
57290;BME280;43523;53.022;-1.178;2023-04-07T03:29:09;101201.40;;;-0.93;100.00
57290;BME280;43523;53.022;-1.178;2023-04-07T03:30:12;101199.81;;;-0.42;100.00
57290;BME280;43523;53.022;-1.178;2023-04-07T03:31:14;101199.11;;;0.01;98.11
57290;BME280;43523;53.022;-1.178;2023-04-07T03:32:16;101206.69;;;-0.76;100.00
57290;BME280;43523;53.022;-1.178;2023-04-07T03:33:19;101212.15;;;-0.76;100.00
57290;BME280;43523;53.022;-1.178;2023-04-07T03:34:22;101215.10;;;-0.87;100.00
57290;BME280;43523;53.022;-1.178;2023-04-07T03:35:25;101214.27;;;-0.16;100.00
57290;BME280;43523;53.022;-1.178;2023-04-07T03:36:26;101217.76;;;0.32;100.00
57290;BME280;43523;53.022;-1.178;2023-04-07T03:37:29;101217.87;;;0.04;99.42
57290;BME280;43523;53.022;-1.178;2023-04-07T03:38:31;101217.69;;;-0.24;100.00
57290;BME280;43523;53.022;-1.178;2023-04-07T03:39:34;101217.54;;;-0.03;99.80
57290;BME280;43523;53.022;-1.178;2023-04-07T03:40:36;101221.24;;;-0.60;100.00
57290;BME280;43523;53.022;-1.178;2023-04-07T03:41:39;101217.66;;;0.07;100.00
57290;BME280;43523;53.022;-1.178;2023-04-07T03:42:44;101216.61;;;-0.14;99.90
57290;BME280;43523;53.022;-1.178;2023-04-07T03:43:46;101214.20;;;-0.05;99.20
57290;BME280;43523;53.022;-1.178;2023-04-07T03:44:48;101214.25;;;0.17;96.61
57290;BME280;43523;53.022;-1.178;2023-04-07T03:45:52;101212.20;;;0.01;97.03
57290;BME280;43523;53.022;-1.178;2023-04-07T03:46:54;101219.44;;;-0.69;99.81
57290;BME280;43523;53.022;-1.178;2023-04-07T03:47:57;101217.19;;;-0.24;99.10
57290;BME280;43523;53.022;-1.178;2023-04-07T03:48:59;101224.72;;;-0.62;100.00
57290;BME280;43523;53.022;-1.178;2023-04-07T03:50:02;101219.97;;;0.08;99.04
57290;BME280;43523;53.022;-1.178;2023-04-07T03:51:04;101222.40;;;-0.21;99.24
57290;BME280;43523;53.022;-1.178;2023-04-07T03:52:08;101221.94;;;0.03;96.75
57290;BME280;43523;53.022;-1.178;2023-04-07T03:53:10;101223.69;;;-0.36;97.66
57290;BME280;43523;53.022;-1.178;2023-04-07T03:54:12;101221.26;;;-0.17;97.36
57290;BME280;43523;53.022;-1.178;2023-04-07T03:55:15;101220.59;;;-0.54;99.00
57290;BME280;43523;53.022;-1.178;2023-04-07T03:56:17;101220.23;;;-1.14;100.00
57290;BME280;43523;53.022;-1.178;2023-04-07T03:57:20;101218.85;;;-1.29;100.00
57290;BME280;43523;53.022;-1.178;2023-04-07T03:58:22;101223.31;;;-1.50;100.00
57290;BME280;43523;53.022;-1.178;2023-04-07T03:59:25;101219.52;;;-0.76;100.00
57290;BME280;43523;53.022;-1.178;2023-04-07T04:00:27;101220.79;;;-1.33;100.00
57290;BME280;43523;53.022;-1.178;2023-04-07T04:01:30;101221.94;;;-1.61;100.00
57290;BME280;43523;53.022;-1.178;2023-04-07T04:02:33;101223.34;;;-1.56;100.00
57290;BME280;43523;53.022;-1.178;2023-04-07T04:03:35;101219.86;;;-1.01;100.00
57290;BME280;43523;53.022;-1.178;2023-04-07T04:04:38;101222.07;;;-1.01;100.00
57290;BME280;43523;53.022;-1.178;2023-04-07T04:05:40;101220.92;;;-1.39;100.00
57290;BME280;43523;53.022;-1.178;2023-04-07T04:06:44;101223.20;;;-1.47;100.00
57290;BME280;43523;53.022;-1.178;2023-04-07T04:07:46;101228.43;;;-1.85;100.00
57290;BME280;43523;53.022;-1.178;2023-04-07T04:08:49;101231.06;;;-1.94;100.00
57290;BME280;43523;53.022;-1.178;2023-04-07T04:09:51;101232.30;;;-1.44;100.00
57290;BME280;43523;53.022;-1.178;2023-04-07T04:10:59;101234.44;;;-0.81;100.00
57290;BME280;43523;53.022;-1.178;2023-04-07T04:12:01;101237.01;;;-0.81;100.00
57290;BME280;43523;53.022;-1.178;2023-04-07T04:13:03;101234.11;;;-0.29;100.00
57290;BME280;43523;53.022;-1.178;2023-04-07T04:14:06;101234.14;;;-0.08;99.70
57290;BME280;43523;53.022;-1.178;2023-04-07T04:15:09;101233.54;;;-0.05;99.19
57290;BME280;43523;53.022;-1.178;2023-04-07T04:16:11;101232.05;;;-0.13;99.01
57290;BME280;43523;53.022;-1.178;2023-04-07T04:17:14;101233.45;;;-0.74;99.78
57290;BME280;43523;53.022;-1.178;2023-04-07T04:18:16;101234.46;;;-0.57;100.00
57290;BME280;43523;53.022;-1.178;2023-04-07T04:19:18;101235.59;;;-1.26;100.00
57290;BME280;43523;53.022;-1.178;2023-04-07T04:20:21;101240.10;;;-1.44;100.00
57290;BME280;43523;53.022;-1.178;2023-04-07T04:21:24;101240.44;;;-1.32;100.00
57290;BME280;43523;53.022;-1.178;2023-04-07T04:22:26;101238.86;;;-0.81;100.00
57290;BME280;43523;53.022;-1.178;2023-04-07T04:23:29;101241.24;;;-0.77;100.00
57290;BME280;43523;53.022;-1.178;2023-04-07T04:24:31;101240.27;;;-0.29;100.00
57290;BME280;43523;53.022;-1.178;2023-04-07T04:25:34;101241.97;;;-0.50;100.00
57290;BME280;43523;53.022;-1.178;2023-04-07T04:26:36;101239.57;;;-0.55;100.00
57290;BME280;43523;53.022;-1.178;2023-04-07T04:27:39;101243.05;;;-0.05;98.03
57290;BME280;43523;53.022;-1.178;2023-04-07T04:28:41;101244.83;;;-0.27;97.88
57290;BME280;43523;53.022;-1.178;2023-04-07T04:29:45;101246.90;;;-0.64;99.66
57290;BME280;43523;53.022;-1.178;2023-04-07T04:30:47;101249.51;;;-0.54;99.35
57290;BME280;43523;53.022;-1.178;2023-04-07T04:31:49;101251.25;;;-0.47;98.80
57290;BME280;43523;53.022;-1.178;2023-04-07T04:32:52;101253.37;;;-0.08;97.35
57290;BME280;43523;53.022;-1.178;2023-04-07T04:33:54;101253.86;;;-0.25;96.76
57290;BME280;43523;53.022;-1.178;2023-04-07T04:34:57;101253.98;;;0.04;94.27
57290;BME280;43523;53.022;-1.178;2023-04-07T04:35:59;101255.45;;;-0.00;94.90
57290;BME280;43523;53.022;-1.178;2023-04-07T04:37:02;101259.51;;;-0.09;95.50
57290;BME280;43523;53.022;-1.178;2023-04-07T04:38:04;101258.55;;;-0.13;94.61
57290;BME280;43523;53.022;-1.178;2023-04-07T04:39:08;101259.64;;;-0.29;94.66
57290;BME280;43523;53.022;-1.178;2023-04-07T04:40:10;101259.91;;;-0.38;95.28
57290;BME280;43523;53.022;-1.178;2023-04-07T04:41:13;101258.40;;;-0.44;96.03
57290;BME280;43523;53.022;-1.178;2023-04-07T04:42:16;101257.79;;;-0.38;95.76
57290;BME280;43523;53.022;-1.178;2023-04-07T04:43:18;101259.86;;;-0.83;96.62
57290;BME280;43523;53.022;-1.178;2023-04-07T04:44:21;101262.10;;;-1.29;99.66
57290;BME280;43523;53.022;-1.178;2023-04-07T04:45:22;101263.61;;;-0.86;98.95
57290;BME280;43523;53.022;-1.178;2023-04-07T04:46:25;101264.78;;;-0.88;98.04
57290;BME280;43523;53.022;-1.178;2023-04-07T04:47:27;101265.40;;;-0.66;98.06
57290;BME280;43523;53.022;-1.178;2023-04-07T04:48:30;101267.22;;;-0.76;97.87
57290;BME280;43523;53.022;-1.178;2023-04-07T04:49:33;101269.06;;;-0.76;98.27
57290;BME280;43523;53.022;-1.178;2023-04-07T04:50:35;101267.09;;;-0.50;97.92
57290;BME280;43523;53.022;-1.178;2023-04-07T04:51:38;101267.35;;;-0.40;96.26
57290;BME280;43523;53.022;-1.178;2023-04-07T04:52:40;101266.94;;;-0.70;97.41
57290;BME280;43523;53.022;-1.178;2023-04-07T04:53:44;101268.83;;;-1.67;100.00
57290;BME280;43523;53.022;-1.178;2023-04-07T04:54:46;101271.10;;;-2.04;100.00
57290;BME280;43523;53.022;-1.178;2023-04-07T04:55:49;101273.76;;;-1.90;100.00
57290;BME280;43523;53.022;-1.178;2023-04-07T04:56:51;101274.96;;;-2.13;100.00
57290;BME280;43523;53.022;-1.178;2023-04-07T04:57:54;101274.71;;;-1.33;100.00
57290;BME280;43523;53.022;-1.178;2023-04-07T04:58:56;101280.26;;;-1.97;100.00
57290;BME280;43523;53.022;-1.178;2023-04-07T04:59:59;101279.95;;;-1.46;100.00
57290;BME280;43523;53.022;-1.178;2023-04-07T05:01:02;101277.97;;;-1.35;100.00
57290;BME280;43523;53.022;-1.178;2023-04-07T05:02:04;101278.22;;;-1.73;100.00
57290;BME280;43523;53.022;-1.178;2023-04-07T05:03:08;101276.67;;;-1.15;100.00
57290;BME280;43523;53.022;-1.178;2023-04-07T05:04:10;101275.28;;;-0.93;99.85
57290;BME280;43523;53.022;-1.178;2023-04-07T05:05:13;101273.68;;;-0.96;99.78
57290;BME280;43523;53.022;-1.178;2023-04-07T05:06:15;101277.19;;;-1.20;100.00
57290;BME280;43523;53.022;-1.178;2023-04-07T05:07:18;101279.20;;;-1.31;100.00
57290;BME280;43523;53.022;-1.178;2023-04-07T05:08:20;101281.12;;;-0.85;100.00
57290;BME280;43523;53.022;-1.178;2023-04-07T05:09:23;101283.96;;;-0.94;99.62
57290;BME280;43523;53.022;-1.178;2023-04-07T05:10:26;101283.72;;;-0.85;99.60
57290;BME280;43523;53.022;-1.178;2023-04-07T05:11:28;101286.29;;;-2.06;100.00
57290;BME280;43523;53.022;-1.178;2023-04-07T05:12:31;101290.57;;;-2.38;100.00
57290;BME280;43523;53.022;-1.178;2023-04-07T05:13:33;101285.97;;;-1.96;100.00
57290;BME280;43523;53.022;-1.178;2023-04-07T05:14:36;101288.00;;;-1.55;100.00
57290;BME280;43523;53.022;-1.178;2023-04-07T05:15:40;101287.88;;;-0.90;100.00
57290;BME280;43523;53.022;-1.178;2023-04-07T05:16:44;101286.82;;;-1.10;100.00
57290;BME280;43523;53.022;-1.178;2023-04-07T05:17:46;101287.97;;;-1.25;100.00
57290;BME280;43523;53.022;-1.178;2023-04-07T05:18:48;101292.30;;;-2.02;100.00
57290;BME280;43523;53.022;-1.178;2023-04-07T05:19:51;101294.98;;;-2.02;100.00
57290;BME280;43523;53.022;-1.178;2023-04-07T05:20:53;101296.45;;;-1.95;100.00
57290;BME280;43523;53.022;-1.178;2023-04-07T05:21:56;101300.68;;;-2.38;100.00
57290;BME280;43523;53.022;-1.178;2023-04-07T05:22:59;101302.58;;;-2.06;100.00
57290;BME280;43523;53.022;-1.178;2023-04-07T05:24:01;101302.34;;;-1.89;100.00
57290;BME280;43523;53.022;-1.178;2023-04-07T05:25:04;101305.94;;;-2.63;100.00
57290;BME280;43523;53.022;-1.178;2023-04-07T05:26:07;101306.84;;;-2.13;100.00
57290;BME280;43523;53.022;-1.178;2023-04-07T05:27:10;101309.10;;;-2.28;100.00
57290;BME280;43523;53.022;-1.178;2023-04-07T05:28:12;101309.75;;;-2.15;100.00
57290;BME280;43523;53.022;-1.178;2023-04-07T05:29:20;101305.53;;;-1.92;100.00